Terminal Aerodrome Forecast
Issued by NWS Jackson, MS

Home | Current Version | Previous Version | Text Only | Print | Product List | Glossary On
Versions: 1 2 3 4 5 6 7 8 9 10 11 12 13 14 15 16 17 18
000
FTUS44 KJAN 270905 AAC
TAFMEI
TAF AMD
KMEI 270905Z 2709/2806 20004KT 3SM BR BKN002
     FM271300 18003KT 2SM BR BKN005
     FM271500 20006KT P6SM SCT035
     FM272000 17006KT P6SM VCTS BKN050CB=

USA.gov is the U.S. government's official web portal to all federal, state and local government web resources and services.